sensor_id;sensor_type;location;lat;lon;timestamp;temperature;humidity
35796;DHT22;21916;52.428;13.302;2023-06-22T00:01:11;20.60;99.90
35796;DHT22;21916;52.428;13.302;2023-06-22T00:03:37;20.60;99.90
35796;DHT22;21916;52.428;13.302;2023-06-22T00:06:03;20.60;99.90
35796;DHT22;21916;52.428;13.302;2023-06-22T00:08:29;20.50;99.90
35796;DHT22;21916;52.428;13.302;2023-06-22T00:10:54;20.50;99.90
35796;DHT22;21916;52.428;13.302;2023-06-22T00:13:20;20.50;99.90
35796;DHT22;21916;52.428;13.302;2023-06-22T00:15:46;20.50;99.90
35796;DHT22;21916;52.428;13.302;2023-06-22T00:18:12;20.60;99.90
35796;DHT22;21916;52.428;13.302;2023-06-22T00:20:39;20.50;99.90
35796;DHT22;21916;52.428;13.302;2023-06-22T00:23:06;20.50;99.90
35796;DHT22;21916;52.428;13.302;2023-06-22T00:25:34;20.60;99.90
35796;DHT22;21916;52.428;13.302;2023-06-22T00:28:01;20.60;99.90
35796;DHT22;21916;52.428;13.302;2023-06-22T00:30:28;20.60;99.90
35796;DHT22;21916;52.428;13.302;2023-06-22T00:32:57;20.60;99.90
35796;DHT22;21916;52.428;13.302;2023-06-22T00:35:24;20.50;99.90
35796;DHT22;21916;52.428;13.302;2023-06-22T00:37:58;20.40;99.90
35796;DHT22;21916;52.428;13.302;2023-06-22T00:40:30;20.40;99.90
35796;DHT22;21916;52.428;13.302;2023-06-22T00:42:58;20.30;99.90
35796;DHT22;21916;52.428;13.302;2023-06-22T00:45:24;20.30;99.90
35796;DHT22;21916;52.428;13.302;2023-06-22T00:47:56;20.30;99.90
35796;DHT22;21916;52.428;13.302;2023-06-22T00:50:23;20.50;99.90
35796;DHT22;21916;52.428;13.302;2023-06-22T00:52:52;20.60;99.90
35796;DHT22;21916;52.428;13.302;2023-06-22T00:55:19;20.60;99.90
35796;DHT22;21916;52.428;13.302;2023-06-22T00:57:46;20.60;99.90
35796;DHT22;21916;52.428;13.302;2023-06-22T01:00:15;20.60;99.90
35796;DHT22;21916;52.428;13.302;2023-06-22T01:02:46;20.50;99.90
35796;DHT22;21916;52.428;13.302;2023-06-22T01:05:16;20.40;99.90
35796;DHT22;21916;52.428;13.302;2023-06-22T01:08:31;20.30;99.90
35796;DHT22;21916;52.428;13.302;2023-06-22T01:10:38;20.20;99.90
35796;DHT22;21916;52.428;13.302;2023-06-22T01:13:11;20.10;99.90
35796;DHT22;21916;52.428;13.302;2023-06-22T01:15:49;20.10;99.90
35796;DHT22;21916;52.428;13.302;2023-06-22T01:18:17;20.10;99.90
35796;DHT22;21916;52.428;13.302;2023-06-22T01:20:44;20.00;99.90
35796;DHT22;21916;52.428;13.302;2023-06-22T01:23:20;20.00;99.90
35796;DHT22;21916;52.428;13.302;2023-06-22T01:28:40;20.10;99.90
35796;DHT22;21916;52.428;13.302;2023-06-22T01:31:12;20.10;99.90
35796;DHT22;21916;52.428;13.302;2023-06-22T01:33:41;20.10;99.90
35796;DHT22;21916;52.428;13.302;2023-06-22T01:36:08;20.00;99.90
35796;DHT22;21916;52.428;13.302;2023-06-22T01:38:36;20.00;99.90
35796;DHT22;21916;52.428;13.302;2023-06-22T01:41:03;20.00;99.90
35796;DHT22;21916;52.428;13.302;2023-06-22T01:43:30;20.00;99.90
35796;DHT22;21916;52.428;13.302;2023-06-22T01:45:58;20.00;99.90
35796;DHT22;21916;52.428;13.302;2023-06-22T01:48:24;20.10;99.90
35796;DHT22;21916;52.428;13.302;2023-06-22T01:50:52;20.10;99.90
35796;DHT22;21916;52.428;13.302;2023-06-22T01:53:23;20.00;99.90
35796;DHT22;21916;52.428;13.302;2023-06-22T01:55:51;20.10;99.90
35796;DHT22;21916;52.428;13.302;2023-06-22T01:58:20;20.20;99.90
35796;DHT22;21916;52.428;13.302;2023-06-22T02:00:53;20.20;99.90
35796;DHT22;21916;52.428;13.302;2023-06-22T02:03:31;20.20;99.90
35796;DHT22;21916;52.428;13.302;2023-06-22T02:06:04;20.20;99.90
35796;DHT22;21916;52.428;13.302;2023-06-22T02:08:40;20.20;99.90
35796;DHT22;21916;52.428;13.302;2023-06-22T02:11:09;20.10;99.90
35796;DHT22;21916;52.428;13.302;2023-06-22T02:13:36;20.10;99.90
35796;DHT22;21916;52.428;13.302;2023-06-22T02:16:04;20.10;99.90
35796;DHT22;21916;52.428;13.302;2023-06-22T02:18:30;20.10;99.90
35796;DHT22;21916;52.428;13.302;2023-06-22T02:20:56;20.10;99.90
35796;DHT22;21916;52.428;13.302;2023-06-22T02:23:22;20.00;99.90
35796;DHT22;21916;52.428;13.302;2023-06-22T02:25:48;20.10;99.90
35796;DHT22;21916;52.428;13.302;2023-06-22T02:28:14;20.10;99.90
35796;DHT22;21916;52.428;13.302;2023-06-22T02:30:39;20.00;99.90
35796;DHT22;21916;52.428;13.302;2023-06-22T02:33:07;19.90;99.90
35796;DHT22;21916;52.428;13.302;2023-06-22T02:35:33;19.90;99.90
35796;DHT22;21916;52.428;13.302;2023-06-22T02:38:02;20.20;99.90
35796;DHT22;21916;52.428;13.302;2023-06-22T02:40:29;20.30;99.90
35796;DHT22;21916;52.428;13.302;2023-06-22T02:42:57;20.10;99.90
35796;DHT22;21916;52.428;13.302;2023-06-22T02:45:29;20.00;99.90
35796;DHT22;21916;52.428;13.302;2023-06-22T02:47:56;20.00;99.90
35796;DHT22;21916;52.428;13.302;2023-06-22T02:50:23;20.00;99.90
35796;DHT22;21916;52.428;13.302;2023-06-22T02:52:49;20.10;99.90
35796;DHT22;21916;52.428;13.302;2023-06-22T02:55:15;20.00;99.90
35796;DHT22;21916;52.428;13.302;2023-06-22T02:57:44;20.00;99.90
35796;DHT22;21916;52.428;13.302;2023-06-22T03:00:14;20.00;99.90
35796;DHT22;21916;52.428;13.302;2023-06-22T03:02:46;20.00;99.90
35796;DHT22;21916;52.428;13.302;2023-06-22T03:05:14;20.00;99.90
35796;DHT22;21916;52.428;13.302;2023-06-22T03:07:41;19.80;99.90
35796;DHT22;21916;52.428;13.302;2023-06-22T03:10:12;19.80;99.90
35796;DHT22;21916;52.428;13.302;2023-06-22T03:12:39;19.90;99.90
35796;DHT22;21916;52.428;13.302;2023-06-22T03:15:10;19.90;99.90
35796;DHT22;21916;52.428;13.302;2023-06-22T03:17:37;19.90;99.90
35796;DHT22;21916;52.428;13.302;2023-06-22T03:20:08;19.90;99.90
35796;DHT22;21916;52.428;13.302;2023-06-22T03:22:37;19.90;99.90
35796;DHT22;21916;52.428;13.302;2023-06-22T03:25:03;20.00;99.90
35796;DHT22;21916;52.428;13.302;2023-06-22T03:27:30;20.00;99.90
35796;DHT22;21916;52.428;13.302;2023-06-22T03:29:57;19.90;99.90
35796;DHT22;21916;52.428;13.302;2023-06-22T03:32:23;20.00;99.90
35796;DHT22;21916;52.428;13.302;2023-06-22T03:34:50;19.90;99.90
35796;DHT22;21916;52.428;13.302;2023-06-22T03:37:16;19.90;99.90
35796;DHT22;21916;52.428;13.302;2023-06-22T03:39:42;20.00;99.90
35796;DHT22;21916;52.428;13.302;2023-06-22T03:42:08;20.00;99.90
35796;DHT22;21916;52.428;13.302;2023-06-22T03:44:35;19.90;99.90
35796;DHT22;21916;52.428;13.302;2023-06-22T03:47:03;20.10;99.90
35796;DHT22;21916;52.428;13.302;2023-06-22T03:49:30;20.00;99.90
35796;DHT22;21916;52.428;13.302;2023-06-22T03:51:56;20.00;99.90
35796;DHT22;21916;52.428;13.302;2023-06-22T03:54:22;19.90;99.90
35796;DHT22;21916;52.428;13.302;2023-06-22T03:56:48;20.00;99.90
35796;DHT22;21916;52.428;13.302;2023-06-22T03:59:13;19.90;99.90
35796;DHT22;21916;52.428;13.302;2023-06-22T04:01:39;19.90;99.90
35796;DHT22;21916;52.428;13.302;2023-06-22T04:04:05;20.00;99.90
35796;DHT22;21916;52.428;13.302;2023-06-22T04:06:31;20.00;99.90
35796;DHT22;21916;52.428;13.302;2023-06-22T04:08:57;20.10;99.90
35796;DHT22;21916;52.428;13.302;2023-06-22T04:11:23;20.20;99.90
35796;DHT22;21916;52.428;13.302;2023-06-22T04:13:49;20.20;99.90
35796;DHT22;21916;52.428;13.302;2023-06-22T04:16:17;20.30;99.90
35796;DHT22;21916;52.428;13.302;2023-06-22T04:18:42;20.30;99.90
35796;DHT22;21916;52.428;13.302;2023-06-22T04:21:10;20.40;99.90
35796;DHT22;21916;52.428;13.302;2023-06-22T04:23:36;20.30;99.90
35796;DHT22;21916;52.428;13.302;2023-06-22T04:26:02;20.50;99.90
35796;DHT22;21916;52.428;13.302;2023-06-22T04:28:28;20.50;99.90
35796;DHT22;21916;52.428;13.302;2023-06-22T04:30:53;20.50;99.90
35796;DHT22;21916;52.428;13.302;2023-06-22T04:33:24;20.50;99.90
35796;DHT22;21916;52.428;13.302;2023-06-22T04:35:50;20.60;99.90
35796;DHT22;21916;52.428;13.302;2023-06-22T04:38:17;20.60;99.90
35796;DHT22;21916;52.428;13.302;2023-06-22T04:40:43;20.60;99.90
35796;DHT22;21916;52.428;13.302;2023-06-22T04:43:09;20.70;99.90
35796;DHT22;21916;52.428;13.302;2023-06-22T04:45:35;20.70;99.90
35796;DHT22;21916;52.428;13.302;2023-06-22T04:48:04;20.80;99.90
35796;DHT22;21916;52.428;13.302;2023-06-22T04:50:31;20.80;99.90
35796;DHT22;21916;52.428;13.302;2023-06-22T04:52:57;20.80;99.90
35796;DHT22;21916;52.428;13.302;2023-06-22T04:55:23;20.90;99.90
35796;DHT22;21916;52.428;13.302;2023-06-22T04:57:51;21.00;99.90
35796;DHT22;21916;52.428;13.302;2023-06-22T05:00:19;21.20;99.90
35796;DHT22;21916;52.428;13.302;2023-06-22T05:02:49;21.40;99.90
35796;DHT22;21916;52.428;13.302;2023-06-22T05:05:15;21.70;99.90
35796;DHT22;21916;52.428;13.302;2023-06-22T05:07:51;21.80;99.90
35796;DHT22;21916;52.428;13.302;2023-06-22T05:10:20;21.90;99.90
35796;DHT22;21916;52.428;13.302;2023-06-22T05:12:46;22.00;99.90
35796;DHT22;21916;52.428;13.302;2023-06-22T05:15:12;22.00;99.90
35796;DHT22;21916;52.428;13.302;2023-06-22T05:17:38;22.00;99.90
35796;DHT22;21916;52.428;13.302;2023-06-22T05:20:11;22.00;99.90
35796;DHT22;21916;52.428;13.302;2023-06-22T05:22:38;22.00;99.90
35796;DHT22;21916;52.428;13.302;2023-06-22T05:25:09;22.20;99.90
35796;DHT22;21916;52.428;13.302;2023-06-22T05:27:36;22.40;99.90
35796;DHT22;21916;52.428;13.302;2023-06-22T05:30:30;22.80;99.90
35796;DHT22;21916;52.428;13.302;2023-06-22T05:32:56;22.90;99.90
35796;DHT22;21916;52.428;13.302;2023-06-22T05:35:25;22.90;99.90
35796;DHT22;21916;52.428;13.302;2023-06-22T05:37:51;23.00;99.90
35796;DHT22;21916;52.428;13.302;2023-06-22T05:40:19;23.10;99.90
35796;DHT22;21916;52.428;13.302;2023-06-22T05:42:45;23.20;99.90
35796;DHT22;21916;52.428;13.302;2023-06-22T05:45:11;23.20;99.90
35796;DHT22;21916;52.428;13.302;2023-06-22T05:47:37;23.30;99.90
35796;DHT22;21916;52.428;13.302;2023-06-22T05:50:06;23.40;99.90
35796;DHT22;21916;52.428;13.302;2023-06-22T05:52:34;23.50;99.90
35796;DHT22;21916;52.428;13.302;2023-06-22T05:55:01;23.60;99.90
35796;DHT22;21916;52.428;13.302;2023-06-22T05:57:28;23.70;99.90
35796;DHT22;21916;52.428;13.302;2023-06-22T05:59:54;23.70;99.90
35796;DHT22;21916;52.428;13.302;2023-06-22T06:02:20;23.70;99.90
35796;DHT22;21916;52.428;13.302;2023-06-22T06:04:46;23.80;99.90
35796;DHT22;21916;52.428;13.302;2023-06-22T06:07:12;23.90;99.90
35796;DHT22;21916;52.428;13.302;2023-06-22T06:09:37;23.90;99.90
35796;DHT22;21916;52.428;13.302;2023-06-22T06:12:04;24.00;99.90
35796;DHT22;21916;52.428;13.302;2023-06-22T06:14:30;24.20;99.90
35796;DHT22;21916;52.428;13.302;2023-06-22T06:16:57;24.20;99.90
35796;DHT22;21916;52.428;13.302;2023-06-22T06:19:23;24.40;99.90
35796;DHT22;21916;52.428;13.302;2023-06-22T06:21:49;24.50;99.90
35796;DHT22;21916;52.428;13.302;2023-06-22T06:24:16;24.50;99.90
35796;DHT22;21916;52.428;13.302;2023-06-22T06:26:42;24.50;99.90
35796;DHT22;21916;52.428;13.302;2023-06-22T06:29:08;24.70;99.90
35796;DHT22;21916;52.428;13.302;2023-06-22T06:31:34;24.90;99.90
35796;DHT22;21916;52.428;13.302;2023-06-22T06:34:00;25.10;99.90
35796;DHT22;21916;52.428;13.302;2023-06-22T06:36:25;25.10;99.90
35796;DHT22;21916;52.428;13.302;2023-06-22T06:38:52;24.90;99.90
35796;DHT22;21916;52.428;13.302;2023-06-22T06:41:19;24.90;99.90
35796;DHT22;21916;52.428;13.302;2023-06-22T06:43:47;24.90;99.90
35796;DHT22;21916;52.428;13.302;2023-06-22T06:46:13;25.00;99.90
35796;DHT22;21916;52.428;13.302;2023-06-22T06:48:38;25.10;99.90
35796;DHT22;21916;52.428;13.302;2023-06-22T06:51:05;25.10;99.90
35796;DHT22;21916;52.428;13.302;2023-06-22T06:53:36;25.30;99.90
35796;DHT22;21916;52.428;13.302;2023-06-22T06:56:02;25.30;99.90
35796;DHT22;21916;52.428;13.302;2023-06-22T06:58:29;25.40;99.90
35796;DHT22;21916;52.428;13.302;2023-06-22T07:00:55;25.40;99.90
35796;DHT22;21916;52.428;13.302;2023-06-22T07:03:21;25.40;99.90
35796;DHT22;21916;52.428;13.302;2023-06-22T07:05:47;25.50;99.90
35796;DHT22;21916;52.428;13.302;2023-06-22T07:08:12;25.60;99.90
35796;DHT22;21916;52.428;13.302;2023-06-22T07:10:38;25.60;99.90
35796;DHT22;21916;52.428;13.302;2023-06-22T07:13:04;25.90;99.90
35796;DHT22;21916;52.428;13.302;2023-06-22T07:15:30;26.20;99.90
35796;DHT22;21916;52.428;13.302;2023-06-22T07:17:56;26.30;99.40
35796;DHT22;21916;52.428;13.302;2023-06-22T07:20:23;26.40;99.40
35796;DHT22;21916;52.428;13.302;2023-06-22T07:22:49;26.50;99.50
35796;DHT22;21916;52.428;13.302;2023-06-22T07:25:15;26.50;98.90
35796;DHT22;21916;52.428;13.302;2023-06-22T07:28:03;26.40;99.50
35796;DHT22;21916;52.428;13.302;2023-06-22T07:30:30;26.50;99.00
35796;DHT22;21916;52.428;13.302;2023-06-22T07:32:57;26.50;97.70
35796;DHT22;21916;52.428;13.302;2023-06-22T07:35:24;26.60;97.20
35796;DHT22;21916;52.428;13.302;2023-06-22T07:37:50;26.80;97.40
35796;DHT22;21916;52.428;13.302;2023-06-22T07:40:16;26.90;97.40
35796;DHT22;21916;52.428;13.302;2023-06-22T07:42:42;27.30;97.30
35796;DHT22;21916;52.428;13.302;2023-06-22T07:45:10;27.50;96.90
35796;DHT22;21916;52.428;13.302;2023-06-22T07:47:37;27.80;97.00
35796;DHT22;21916;52.428;13.302;2023-06-22T07:50:03;27.90;96.30
35796;DHT22;21916;52.428;13.302;2023-06-22T07:52:30;27.60;95.30
35796;DHT22;21916;52.428;13.302;2023-06-22T07:54:56;27.70;95.50
35796;DHT22;21916;52.428;13.302;2023-06-22T07:57:23;27.80;95.60
35796;DHT22;21916;52.428;13.302;2023-06-22T07:59:49;27.80;94.70
35796;DHT22;21916;52.428;13.302;2023-06-22T08:02:15;27.80;94.00
35796;DHT22;21916;52.428;13.302;2023-06-22T08:04:41;27.80;93.90
35796;DHT22;21916;52.428;13.302;2023-06-22T08:07:07;27.80;93.90
35796;DHT22;21916;52.428;13.302;2023-06-22T08:09:33;28.00;94.00
35796;DHT22;21916;52.428;13.302;2023-06-22T08:11:59;28.10;93.40
35796;DHT22;21916;52.428;13.302;2023-06-22T08:14:27;28.20;93.70
35796;DHT22;21916;52.428;13.302;2023-06-22T08:16:53;28.20;94.00
35796;DHT22;21916;52.428;13.302;2023-06-22T08:19:19;28.20;93.40
35796;DHT22;21916;52.428;13.302;2023-06-22T08:21:45;28.30;93.60
35796;DHT22;21916;52.428;13.302;2023-06-22T08:24:11;28.50;93.70
35796;DHT22;21916;52.428;13.302;2023-06-22T08:26:37;28.60;92.80
35796;DHT22;21916;52.428;13.302;2023-06-22T08:29:04;28.60;93.20
35796;DHT22;21916;52.428;13.302;2023-06-22T08:31:30;28.70;92.90
35796;DHT22;21916;52.428;13.302;2023-06-22T08:33:57;28.50;92.00
35796;DHT22;21916;52.428;13.302;2023-06-22T08:36:23;28.60;92.60
35796;DHT22;21916;52.428;13.302;2023-06-22T08:38:49;28.80;93.00
35796;DHT22;21916;52.428;13.302;2023-06-22T08:41:17;29.00;92.00
35796;DHT22;21916;52.428;13.302;2023-06-22T08:43:44;29.00;92.30
35796;DHT22;21916;52.428;13.302;2023-06-22T08:46:10;29.00;92.40
35796;DHT22;21916;52.428;13.302;2023-06-22T08:48:36;29.20;92.00
35796;DHT22;21916;52.428;13.302;2023-06-22T08:51:02;29.40;91.90
35796;DHT22;21916;52.428;13.302;2023-06-22T08:53:29;29.50;91.40
35796;DHT22;21916;52.428;13.302;2023-06-22T08:55:55;29.70;91.40
35796;DHT22;21916;52.428;13.302;2023-06-22T08:58:23;29.70;90.90
35796;DHT22;21916;52.428;13.302;2023-06-22T09:00:50;29.90;90.40
35796;DHT22;21916;52.428;13.302;2023-06-22T09:03:17;29.90;90.40
35796;DHT22;21916;52.428;13.302;2023-06-22T09:05:43;30.10;90.70
35796;DHT22;21916;52.428;13.302;2023-06-22T09:08:10;30.30;90.70
35796;DHT22;21916;52.428;13.302;2023-06-22T09:10:36;30.60;90.70
35796;DHT22;21916;52.428;13.302;2023-06-22T09:13:02;30.50;90.80
35796;DHT22;21916;52.428;13.302;2023-06-22T09:15:28;30.50;90.70
35796;DHT22;21916;52.428;13.302;2023-06-22T09:17:54;30.40;90.50
35796;DHT22;21916;52.428;13.302;2023-06-22T09:20:21;29.60;91.00
35796;DHT22;21916;52.428;13.302;2023-06-22T09:22:47;29.60;91.40
35796;DHT22;21916;52.428;13.302;2023-06-22T09:25:13;29.90;91.10
35796;DHT22;21916;52.428;13.302;2023-06-22T09:27:39;30.20;91.00
35796;DHT22;21916;52.428;13.302;2023-06-22T09:30:06;30.40;90.60
35796;DHT22;21916;52.428;13.302;2023-06-22T09:32:32;30.50;90.40
35796;DHT22;21916;52.428;13.302;2023-06-22T09:34:58;30.50;90.20
35796;DHT22;21916;52.428;13.302;2023-06-22T09:37:24;30.50;90.10
35796;DHT22;21916;52.428;13.302;2023-06-22T09:39:49;30.70;90.50
35796;DHT22;21916;52.428;13.302;2023-06-22T09:42:16;30.90;90.40
35796;DHT22;21916;52.428;13.302;2023-06-22T09:44:42;30.30;88.40
35796;DHT22;21916;52.428;13.302;2023-06-22T09:47:08;29.90;89.40
35796;DHT22;21916;52.428;13.302;2023-06-22T09:49:34;30.30;90.50
35796;DHT22;21916;52.428;13.302;2023-06-22T09:52:01;30.60;90.40
35796;DHT22;21916;52.428;13.302;2023-06-22T09:54:27;30.90;90.40
35796;DHT22;21916;52.428;13.302;2023-06-22T09:56:54;31.00;88.10
35796;DHT22;21916;52.428;13.302;2023-06-22T09:59:20;31.00;88.50
35796;DHT22;21916;52.428;13.302;2023-06-22T10:01:46;31.40;89.30
35796;DHT22;21916;52.428;13.302;2023-06-22T10:04:12;31.60;88.40
35796;DHT22;21916;52.428;13.302;2023-06-22T10:06:38;31.80;87.60
35796;DHT22;21916;52.428;13.302;2023-06-22T10:09:09;31.80;87.90
35796;DHT22;21916;52.428;13.302;2023-06-22T10:11:35;31.90;85.70
35796;DHT22;21916;52.428;13.302;2023-06-22T10:14:02;32.10;85.70
35796;DHT22;21916;52.428;13.302;2023-06-22T10:16:33;32.10;84.90
35796;DHT22;21916;52.428;13.302;2023-06-22T10:19:01;31.90;84.40
35796;DHT22;21916;52.428;13.302;2023-06-22T10:21:27;31.80;86.40
35796;DHT22;21916;52.428;13.302;2023-06-22T10:23:54;31.60;85.20
35796;DHT22;21916;52.428;13.302;2023-06-22T10:26:21;31.60;85.60
35796;DHT22;21916;52.428;13.302;2023-06-22T10:28:47;31.80;85.10
35796;DHT22;21916;52.428;13.302;2023-06-22T10:31:13;31.80;85.30
35796;DHT22;21916;52.428;13.302;2023-06-22T10:33:39;31.90;85.00
35796;DHT22;21916;52.428;13.302;2023-06-22T10:36:07;31.90;84.10
35796;DHT22;21916;52.428;13.302;2023-06-22T10:38:34;31.70;85.00
35796;DHT22;21916;52.428;13.302;2023-06-22T10:41:00;32.10;84.30
35796;DHT22;21916;52.428;13.302;2023-06-22T10:43:27;32.70;83.90
35796;DHT22;21916;52.428;13.302;2023-06-22T10:45:53;33.60;83.40
35796;DHT22;21916;52.428;13.302;2023-06-22T10:48:18;34.40;81.50
35796;DHT22;21916;52.428;13.302;2023-06-22T10:50:46;35.10;79.00
35796;DHT22;21916;52.428;13.302;2023-06-22T10:53:13;35.50;78.20
35796;DHT22;21916;52.428;13.302;2023-06-22T10:55:39;36.40;77.00
35796;DHT22;21916;52.428;13.302;2023-06-22T10:58:05;36.30;74.50
35796;DHT22;21916;52.428;13.302;2023-06-22T11:00:30;36.90;73.50
35796;DHT22;21916;52.428;13.302;2023-06-22T11:02:56;37.20;74.00
35796;DHT22;21916;52.428;13.302;2023-06-22T11:05:25;37.60;72.00
35796;DHT22;21916;52.428;13.302;2023-06-22T11:07:52;37.80;71.30
35796;DHT22;21916;52.428;13.302;2023-06-22T11:10:20;37.60;71.10
35796;DHT22;21916;52.428;13.302;2023-06-22T11:12:46;37.90;69.60
35796;DHT22;21916;52.428;13.302;2023-06-22T11:15:12;38.00;68.50
35796;DHT22;21916;52.428;13.302;2023-06-22T11:17:38;38.30;68.90
35796;DHT22;21916;52.428;13.302;2023-06-22T11:20:04;38.60;69.20
35796;DHT22;21916;52.428;13.302;2023-06-22T11:22:40;39.30;66.80
35796;DHT22;21916;52.428;13.302;2023-06-22T11:25:07;40.20;65.50
35796;DHT22;21916;52.428;13.302;2023-06-22T11:27:33;40.40;64.80
35796;DHT22;21916;52.428;13.302;2023-06-22T11:29:59;40.70;63.40
35796;DHT22;21916;52.428;13.302;2023-06-22T11:32:26;40.70;62.80
35796;DHT22;21916;52.428;13.302;2023-06-22T11:34:52;41.10;62.40
35796;DHT22;21916;52.428;13.302;2023-06-22T11:37:18;41.00;61.00
35796;DHT22;21916;52.428;13.302;2023-06-22T11:39:44;41.40;60.70
35796;DHT22;21916;52.428;13.302;2023-06-22T11:42:10;41.50;60.40
35796;DHT22;21916;52.428;13.302;2023-06-22T11:44:36;41.30;58.80
35796;DHT22;21916;52.428;13.302;2023-06-22T11:47:02;41.60;57.70
35796;DHT22;21916;52.428;13.302;2023-06-22T11:49:32;41.80;57.40
35796;DHT22;21916;52.428;13.302;2023-06-22T11:51:58;41.60;58.00
35796;DHT22;21916;52.428;13.302;2023-06-22T11:54:24;41.00;56.90
35796;DHT22;21916;52.428;13.302;2023-06-22T11:56:50;40.20;56.80
35796;DHT22;21916;52.428;13.302;2023-06-22T11:59:16;39.70;58.10
35796;DHT22;21916;52.428;13.302;2023-06-22T12:01:42;40.30;59.20
35796;DHT22;21916;52.428;13.302;2023-06-22T12:04:08;40.60;58.30
35796;DHT22;21916;52.428;13.302;2023-06-22T12:06:38;41.20;58.30
35796;DHT22;21916;52.428;13.302;2023-06-22T12:09:09;41.70;58.30
35796;DHT22;21916;52.428;13.302;2023-06-22T12:11:35;41.90;56.40
35796;DHT22;21916;52.428;13.302;2023-06-22T12:14:01;41.80;57.20
35796;DHT22;21916;52.428;13.302;2023-06-22T12:16:28;42.20;56.50
35796;DHT22;21916;52.428;13.302;2023-06-22T12:18:54;43.10;55.30
35796;DHT22;21916;52.428;13.302;2023-06-22T12:21:20;42.90;54.50
35796;DHT22;21916;52.428;13.302;2023-06-22T12:23:47;43.10;53.90
35796;DHT22;21916;52.428;13.302;2023-06-22T12:26:13;43.40;55.20
35796;DHT22;21916;52.428;13.302;2023-06-22T12:28:39;43.60;54.30
35796;DHT22;21916;52.428;13.302;2023-06-22T12:31:05;44.00;54.80
35796;DHT22;21916;52.428;13.302;2023-06-22T12:33:31;44.30;53.30
35796;DHT22;21916;52.428;13.302;2023-06-22T12:35:57;44.10;52.80
35796;DHT22;21916;52.428;13.302;2023-06-22T12:38:23;43.00;52.40
35796;DHT22;21916;52.428;13.302;2023-06-22T12:40:51;42.40;54.20
35796;DHT22;21916;52.428;13.302;2023-06-22T12:43:19;42.60;53.00
35796;DHT22;21916;52.428;13.302;2023-06-22T12:45:45;43.00;53.20
35796;DHT22;21916;52.428;13.302;2023-06-22T12:48:11;43.30;52.50
35796;DHT22;21916;52.428;13.302;2023-06-22T12:50:38;44.40;52.10
35796;DHT22;21916;52.428;13.302;2023-06-22T12:53:04;44.20;52.40
35796;DHT22;21916;52.428;13.302;2023-06-22T12:55:32;42.30;52.10
35796;DHT22;21916;52.428;13.302;2023-06-22T12:57:58;41.30;53.20
35796;DHT22;21916;52.428;13.302;2023-06-22T13:00:24;41.40;53.20
35796;DHT22;21916;52.428;13.302;2023-06-22T13:02:50;42.50;53.30
35796;DHT22;21916;52.428;13.302;2023-06-22T13:05:16;43.80;51.80
35796;DHT22;21916;52.428;13.302;2023-06-22T13:07:42;44.50;51.30
35796;DHT22;21916;52.428;13.302;2023-06-22T13:10:08;45.00;51.30
35796;DHT22;21916;52.428;13.302;2023-06-22T13:12:34;44.70;52.50
35796;DHT22;21916;52.428;13.302;2023-06-22T13:15:00;44.70;50.90
35796;DHT22;21916;52.428;13.302;2023-06-22T13:17:29;44.90;50.90
35796;DHT22;21916;52.428;13.302;2023-06-22T13:19:56;44.90;50.30
35796;DHT22;21916;52.428;13.302;2023-06-22T13:22:33;45.50;51.60
35796;DHT22;21916;52.428;13.302;2023-06-22T13:25:06;45.60;50.10
35796;DHT22;21916;52.428;13.302;2023-06-22T13:27:32;45.50;50.00
35796;DHT22;21916;52.428;13.302;2023-06-22T13:30:00;45.80;50.40
35796;DHT22;21916;52.428;13.302;2023-06-22T13:32:26;46.10;48.90
35796;DHT22;21916;52.428;13.302;2023-06-22T13:34:54;45.80;50.70
35796;DHT22;21916;52.428;13.302;2023-06-22T13:37:21;45.80;49.90
35796;DHT22;21916;52.428;13.302;2023-06-22T13:39:48;46.20;49.50
35796;DHT22;21916;52.428;13.302;2023-06-22T13:42:13;46.20;48.80
35796;DHT22;21916;52.428;13.302;2023-06-22T13:44:40;45.50;49.90
35796;DHT22;21916;52.428;13.302;2023-06-22T13:47:06;46.00;49.20
35796;DHT22;21916;52.428;13.302;2023-06-22T13:49:32;45.60;49.10
35796;DHT22;21916;52.428;13.302;2023-06-22T13:52:00;45.60;49.50
35796;DHT22;21916;52.428;13.302;2023-06-22T13:54:26;46.20;49.80
35796;DHT22;21916;52.428;13.302;2023-06-22T13:56:52;45.80;49.70
35796;DHT22;21916;52.428;13.302;2023-06-22T13:59:18;46.00;49.40
35796;DHT22;21916;52.428;13.302;2023-06-22T14:01:45;46.00;49.70
35796;DHT22;21916;52.428;13.302;2023-06-22T14:04:11;45.90;48.90
35796;DHT22;21916;52.428;13.302;2023-06-22T14:06:38;45.80;48.80
35796;DHT22;21916;52.428;13.302;2023-06-22T14:09:05;45.50;49.60
35796;DHT22;21916;52.428;13.302;2023-06-22T14:11:31;45.90;49.80
35796;DHT22;21916;52.428;13.302;2023-06-22T14:13:56;46.00;48.50
35796;DHT22;21916;52.428;13.302;2023-06-22T14:16:22;45.80;48.30
35796;DHT22;21916;52.428;13.302;2023-06-22T14:18:50;45.50;48.40
35796;DHT22;21916;52.428;13.302;2023-06-22T14:21:16;45.40;48.90
35796;DHT22;21916;52.428;13.302;2023-06-22T14:23:42;45.40;48.60
35796;DHT22;21916;52.428;13.302;2023-06-22T14:26:12;45.10;48.80
35796;DHT22;21916;52.428;13.302;2023-06-22T14:28:38;44.70;48.80
35796;DHT22;21916;52.428;13.302;2023-06-22T14:31:04;45.50;48.40
35796;DHT22;21916;52.428;13.302;2023-06-22T14:33:30;45.50;48.70
35796;DHT22;21916;52.428;13.302;2023-06-22T14:35:56;45.80;49.30
35796;DHT22;21916;52.428;13.302;2023-06-22T14:38:22;45.60;49.00
35796;DHT22;21916;52.428;13.302;2023-06-22T14:40:48;45.40;48.90
35796;DHT22;21916;52.428;13.302;2023-06-22T14:43:14;45.40;49.00
35796;DHT22;21916;52.428;13.302;2023-06-22T14:45:40;45.40;50.00
35796;DHT22;21916;52.428;13.302;2023-06-22T14:48:06;44.70;48.90
35796;DHT22;21916;52.428;13.302;2023-06-22T14:50:32;44.40;48.90
35796;DHT22;21916;52.428;13.302;2023-06-22T14:52:58;44.70;49.00
35796;DHT22;21916;52.428;13.302;2023-06-22T14:55:25;44.80;50.90
35796;DHT22;21916;52.428;13.302;2023-06-22T14:57:51;44.30;48.90
35796;DHT22;21916;52.428;13.302;2023-06-22T15:00:18;43.90;49.00
35796;DHT22;21916;52.428;13.302;2023-06-22T15:02:44;44.00;50.10
35796;DHT22;21916;52.428;13.302;2023-06-22T15:05:10;44.60;50.30
35796;DHT22;21916;52.428;13.302;2023-06-22T15:07:36;44.70;49.70
35796;DHT22;21916;52.428;13.302;2023-06-22T15:10:02;44.70;49.90
35796;DHT22;21916;52.428;13.302;2023-06-22T15:12:28;44.70;48.80
35796;DHT22;21916;52.428;13.302;2023-06-22T15:14:54;44.40;49.00
35796;DHT22;21916;52.428;13.302;2023-06-22T15:17:19;43.70;49.50